Caribbean Galaxy — 3EZV4 — position and weather

sailwx.info

Track history (hours):
 
Tides and Currents Weather Stations Pressure Air Temp Water Temp Dewpoint Dewpoint Depression Visibility Wind Speed Wind Dir Waves Ship Positions

Caribbean Galaxy

Last reported at 2015-Jul-26 21:33 UTC. Time now 2015-Aug-01 03:35 UTC.
Position N 01°16' E 104°14'.

Length 246 m; draft 11.5 m.

Type: Tanker. MMSI: 357449000.

Date/timePositionNaut miles runAvg speedWind from/ knotsBaromVisibWave heightAir tempDewpointWater temp
2015-Jul-26 21:33N 01°16' E 104°14'1111.4
2015-Jul-26 20:33N 01°14' E 104°03'1211.6
2015-Jul-26 19:33N 01°11' E 103°51'  
2015-Jul-24 07:33N 01°11' E 103°41'1212.2
2015-Jul-24 06:33N 01°13' E 103°53'3 2.6
2015-Jul-24 05:32N 01°15' E 103°54'0 0.0
2015-Jul-24 04:29N 01°15' E 103°54'0 0.0
2015-Jul-24 03:32N 01°15' E 103°54'0 0.1
2015-Jul-24 02:32N 01°15' E 103°54'0 0.1
2015-Jul-24 01:26N 01°15' E 103°54'0 0.1
2015-Jul-24 00:29N 01°15' E 103°54'0 0.1
2015-Jul-23 23:29N 01°15' E 103°55'0 0.0
2015-Jul-23 22:23N 01°15' E 103°55'0 0.0
2015-Jul-23 21:23N 01°15' E 103°55'0 0.1
2015-Jul-23 20:32N 01°15' E 103°54'0 0.0
2015-Jul-23 19:23N 01°15' E 103°54'0 0.1
2015-Jul-23 18:32N 01°15' E 103°54'0 0.0
2015-Jul-23 17:32N 01°15' E 103°54'0 0.0
2015-Jul-23 16:32N 01°15' E 103°54'0 0.0
2015-Jul-23 15:32N 01°15' E 103°54'0 0.0
2015-Jul-23 14:32N 01°15' E 103°54'0 0.0
2015-Jul-23 13:32N 01°15' E 103°54'0 0.0
2015-Jul-23 12:32N 01°15' E 103°54'0 0.0
2015-Jul-23 11:23N 01°15' E 103°54'0 0.0
2015-Jul-23 10:32N 01°15' E 103°54'0 0.0
2015-Jul-23 09:32N 01°15' E 103°54'0 0.0
2015-Jul-23 08:32N 01°15' E 103°54'0 0.0
2015-Jul-23 07:32N 01°15' E 103°54'2 1.9
2015-Jul-23 06:33N 01°15' E 103°56'5 4.7
2015-Jul-23 05:33N 01°16' E 104°01'8 7.6
2015-Jul-23 04:33N 01°17' E 104°08'  
Track history (hours):
 
Tides and Currents Weather Stations Pressure Air Temp Water Temp Dewpoint Dewpoint Depression Visibility Wind Speed Wind Dir Waves Ship Positions

Caribbean Galaxy

Last reported at 2015-Jul-26 21:33 UTC. Time now 2015-Aug-01 03:35 UTC.
Position N 01°16' E 104°14'.

Length 246 m; draft 11.5 m.

Type: Tanker. MMSI: 357449000.

Date/timePositionNaut miles runAvg speedWind from/ knotsBaromVisibWave heightAir tempDewpointWater temp
2015-Jul-26 21:33N 01°16' E 104°14'1111.4
2015-Jul-26 20:33N 01°14' E 104°03'1211.6
2015-Jul-26 19:33N 01°11' E 103°51'  
2015-Jul-24 07:33N 01°11' E 103°41'1212.2
2015-Jul-24 06:33N 01°13' E 103°53'3 2.6
2015-Jul-24 05:32N 01°15' E 103°54'0 0.0
2015-Jul-24 04:29N 01°15' E 103°54'0 0.0
2015-Jul-24 03:32N 01°15' E 103°54'0 0.1
2015-Jul-24 02:32N 01°15' E 103°54'0 0.1
2015-Jul-24 01:26N 01°15' E 103°54'0 0.1
2015-Jul-24 00:29N 01°15' E 103°54'0 0.1
2015-Jul-23 23:29N 01°15' E 103°55'0 0.0
2015-Jul-23 22:23N 01°15' E 103°55'0 0.0
2015-Jul-23 21:23N 01°15' E 103°55'0 0.1
2015-Jul-23 20:32N 01°15' E 103°54'0 0.0
2015-Jul-23 19:23N 01°15' E 103°54'0 0.1
2015-Jul-23 18:32N 01°15' E 103°54'0 0.0
2015-Jul-23 17:32N 01°15' E 103°54'0 0.0
2015-Jul-23 16:32N 01°15' E 103°54'0 0.0
2015-Jul-23 15:32N 01°15' E 103°54'0 0.0
2015-Jul-23 14:32N 01°15' E 103°54'0 0.0
2015-Jul-23 13:32N 01°15' E 103°54'0 0.0
2015-Jul-23 12:32N 01°15' E 103°54'0 0.0
2015-Jul-23 11:23N 01°15' E 103°54'0 0.0
2015-Jul-23 10:32N 01°15' E 103°54'0 0.0
2015-Jul-23 09:32N 01°15' E 103°54'0 0.0
2015-Jul-23 08:32N 01°15' E 103°54'0 0.0
2015-Jul-23 07:32N 01°15' E 103°54'2 1.9
2015-Jul-23 06:33N 01°15' E 103°56'5 4.7
2015-Jul-23 05:33N 01°16' E 104°01'8 7.6
2015-Jul-23 04:33N 01°17' E 104°08'  

Dump ship's entire track history